createdAt,value
2018-11-22T12:17:56.989Z,32.27
2018-11-22T12:20:26.652Z,25.23
2018-11-22T12:22:57.604Z,25.47
2018-11-22T12:25:28.130Z,24.13
2018-11-22T12:27:59.265Z,23.17
2018-11-22T12:30:31.998Z,27.23
2018-11-22T12:33:07.061Z,22.13
2018-11-22T12:35:41.831Z,23.17
2018-11-22T12:38:16.666Z,19.07
2018-11-22T12:40:46.455Z,28.50
2018-11-22T12:43:16.288Z,25.33
2018-11-22T12:45:45.965Z,28.40
2018-11-22T12:48:15.933Z,28.57
2018-11-22T12:50:45.659Z,24.97
2018-11-22T12:53:15.558Z,19.83
2018-11-22T12:55:45.549Z,23.67
2018-11-22T12:58:15.235Z,27.47
2018-11-22T13:00:45.360Z,21.30
2018-11-22T13:03:15.117Z,26.13
2018-11-22T13:05:44.955Z,18.30
2018-11-22T13:08:15.738Z,22.77
2018-11-22T13:10:45.563Z,20.50
2018-11-22T13:13:16.064Z,19.57
2018-11-22T13:15:46.038Z,18.10
2018-11-22T13:18:16.282Z,23.40
2018-11-22T13:20:46.118Z,22.37
2018-11-22T13:23:16.091Z,21.70
2018-11-22T13:25:45.835Z,19.27
2018-11-22T13:28:15.802Z,23.77
2018-11-22T13:30:45.644Z,22.43
2018-11-22T13:33:15.420Z,19.67
2018-11-22T13:35:45.627Z,26.03
2018-11-22T13:38:15.458Z,25.83
2018-11-22T13:40:45.254Z,21.57
2018-11-22T13:43:14.984Z,18.97
2018-11-22T13:45:44.838Z,22.80
2018-11-22T13:48:14.886Z,21.50
2018-11-22T13:50:44.631Z,23.53
2018-11-22T13:53:14.791Z,25.73
2018-11-22T13:55:44.604Z,25.20
2018-11-22T13:58:14.434Z,22.80
2018-11-22T14:00:44.225Z,24.97
2018-11-22T14:03:14.024Z,27.10
2018-11-22T14:05:43.844Z,22.90
2018-11-22T14:08:13.557Z,20.27
2018-11-22T14:10:43.493Z,18.13
2018-11-22T14:13:13.399Z,16.53
2018-11-22T14:15:43.890Z,19.60
2018-11-22T14:18:13.611Z,18.67
2018-11-22T14:20:43.471Z,19.73
2018-11-22T14:26:28.293Z,30.40
2018-11-22T14:28:58.009Z,24.20
2018-11-22T14:31:27.951Z,22.00
2018-11-22T14:33:57.733Z,27.27
2018-11-22T14:36:27.651Z,22.27
2018-11-22T14:38:57.614Z,24.30
2018-11-22T14:41:27.667Z,25.90
2018-11-22T14:43:57.621Z,21.60
2018-11-22T14:46:27.550Z,24.83
2018-11-22T14:48:57.710Z,22.20
2018-11-22T14:51:36.977Z,31.77
2018-11-22T14:54:07.040Z,18.83
2018-11-22T14:56:36.765Z,24.63
2018-11-22T14:59:06.718Z,22.00
2018-11-22T15:01:36.692Z,26.43
2018-11-22T15:04:06.681Z,30.03
2018-11-22T15:06:36.520Z,26.00
2018-11-22T15:09:09.252Z,23.87
2018-11-22T15:11:39.305Z,33.83
2018-11-22T15:14:10.033Z,32.03
2018-11-22T15:16:39.782Z,34.53
2018-11-22T15:19:10.376Z,43.00
2018-11-22T15:21:40.328Z,39.50
2018-11-22T15:24:10.202Z,54.47
2018-11-22T15:26:40.040Z,44.70
2018-11-22T15:29:09.950Z,35.73
2018-11-22T15:31:39.693Z,59.87
2018-11-22T15:34:09.433Z,44.63
2018-11-22T15:36:39.362Z,43.43
2018-11-22T15:39:10.305Z,38.83
2018-11-22T15:41:40.219Z,34.27
2018-11-22T15:44:10.083Z,37.23
2018-11-22T15:46:39.939Z,33.93
2018-11-22T15:49:09.684Z,32.67
2018-11-22T15:51:39.467Z,40.23
2018-11-22T15:54:09.298Z,43.93
2018-11-22T15:56:39.199Z,55.60
2018-11-22T15:59:09.188Z,59.93
2018-11-22T16:01:38.842Z,55.63
2018-11-22T16:04:08.680Z,52.40
2018-11-22T16:06:38.580Z,55.57
2018-11-22T16:09:10.617Z,49.47
2018-11-22T16:11:40.332Z,49.57
2018-11-22T16:14:10.345Z,54.97
2018-11-22T16:16:40.646Z,53.57
2018-11-22T16:19:10.579Z,46.60
2018-11-22T16:21:40.558Z,53.13
2018-11-22T16:24:10.236Z,51.27
2018-11-22T16:26:40.115Z,61.27
2018-11-22T16:29:09.950Z,59.33
2018-11-22T16:31:39.805Z,54.67
2018-11-22T16:34:09.629Z,45.77
2018-11-22T16:36:40.026Z,43.97
2018-11-22T16:39:10.848Z,57.63
2018-11-22T16:41:40.590Z,57.30
2018-11-22T16:44:10.447Z,54.93
2018-11-22T16:46:40.402Z,48.53
2018-11-22T16:49:10.184Z,82.23
2018-11-22T16:51:39.954Z,56.40
2018-11-22T16:54:09.963Z,50.57
2018-11-22T16:56:39.699Z,44.20
2018-11-22T16:59:10.203Z,44.77
2018-11-22T17:01:40.088Z,48.67
2018-11-22T17:04:09.947Z,43.87
2018-11-22T17:06:39.883Z,43.60
2018-11-22T17:09:10.594Z,41.37
2018-11-22T17:11:40.434Z,47.63
2018-11-22T17:14:10.194Z,47.03
2018-11-22T17:16:39.942Z,48.13
2018-11-22T17:19:09.702Z,55.60
2018-11-22T17:21:39.630Z,50.33
2018-11-22T17:24:09.479Z,48.40
2018-11-22T17:26:39.337Z,43.03
2018-11-22T17:29:09.270Z,43.87
2018-11-22T17:31:38.981Z,47.27
2018-11-22T17:34:08.768Z,44.63
2018-11-22T17:36:38.570Z,41.07
2018-11-22T17:39:14.375Z,39.63
2018-11-22T17:41:44.281Z,41.83
2018-11-22T17:44:14.039Z,40.07
2018-11-22T17:46:43.987Z,44.73
2018-11-22T17:49:13.762Z,38.97
2018-11-22T17:51:43.682Z,37.37
2018-11-22T17:54:13.583Z,48.13
2018-11-22T17:56:43.455Z,40.60
2018-11-22T17:59:13.330Z,45.73
2018-11-22T18:01:43.267Z,38.00
2018-11-22T18:04:13.246Z,48.13
2018-11-22T18:06:45.142Z,38.93
2018-11-22T18:09:14.917Z,42.70
2018-11-22T18:11:44.763Z,39.20
2018-11-22T18:14:14.762Z,36.83
2018-11-22T18:16:44.518Z,38.57
2018-11-22T18:19:14.355Z,42.07
2018-11-22T18:21:44.205Z,40.70
2018-11-22T18:24:14.769Z,36.27
2018-11-22T18:26:44.669Z,42.93
2018-11-22T18:29:14.543Z,33.43
2018-11-22T18:31:44.297Z,36.57
2018-11-22T18:34:14.586Z,33.37
2018-11-22T18:36:44.498Z,35.77
2018-11-22T18:39:14.293Z,44.97
2018-11-22T18:41:44.136Z,36.03
2018-11-22T18:44:13.637Z,37.70
2018-11-22T18:46:43.423Z,37.03
2018-11-22T18:49:13.311Z,42.50
2018-11-22T18:51:43.263Z,41.20
2018-11-22T18:54:13.174Z,40.00
2018-11-22T18:56:42.996Z,36.70
2018-11-22T18:59:13.081Z,55.33
2018-11-22T19:01:44.997Z,49.30
2018-11-22T19:04:12.592Z,40.43
2018-11-22T19:06:45.968Z,39.27
2018-11-22T19:09:15.785Z,43.13
2018-11-22T19:11:45.550Z,38.40
2018-11-22T19:14:29.788Z,44.80
2018-11-22T19:16:59.606Z,49.60
2018-11-22T19:19:29.316Z,57.10
2018-11-22T19:21:59.136Z,50.90
2018-11-22T19:24:28.825Z,58.23
2018-11-22T19:26:58.837Z,70.90
2018-11-22T19:29:28.666Z,73.17
2018-11-22T19:31:58.828Z,80.10
2018-11-22T19:34:28.605Z,69.20
2018-11-22T19:36:58.405Z,77.13
2018-11-22T19:39:28.208Z,75.87
2018-11-22T19:41:58.251Z,69.77
2018-11-22T19:44:28.200Z,70.97
2018-11-22T19:46:58.082Z,82.93
2018-11-22T19:49:27.843Z,79.53
2018-11-22T19:51:57.710Z,84.60
2018-11-22T19:54:27.449Z,80.47
2018-11-22T19:56:57.219Z,66.53
2018-11-22T19:59:27.038Z,69.77
2018-11-22T20:01:56.907Z,84.17
2018-11-22T20:04:27.923Z,75.23
2018-11-22T20:06:57.769Z,71.80
2018-11-22T20:09:27.713Z,63.30
2018-11-22T20:11:57.444Z,54.60
2018-11-22T20:14:27.178Z,47.73
2018-11-22T20:16:57.007Z,43.00
2018-11-22T20:19:26.750Z,46.13
2018-11-22T20:21:57.341Z,48.43
2018-11-22T20:24:27.175Z,49.47
2018-11-22T20:26:57.035Z,49.87
2018-11-22T20:29:26.826Z,35.53
2018-11-22T20:31:56.620Z,38.60
2018-11-22T20:34:26.443Z,45.37
2018-11-22T20:36:56.352Z,37.73
2018-11-22T20:39:26.160Z,40.43
2018-11-22T20:41:55.903Z,42.43
2018-11-22T20:44:27.857Z,36.73
2018-11-22T20:46:57.704Z,39.57
2018-11-22T20:49:27.629Z,34.03
2018-11-22T20:51:57.321Z,39.07
2018-11-22T20:54:27.110Z,39.27
2018-11-22T20:56:56.874Z,34.97
2018-11-22T20:59:26.612Z,38.83
2018-11-22T21:01:56.476Z,45.47
2018-11-22T21:04:26.216Z,36.57
2018-11-22T21:06:57.002Z,33.53
2018-11-22T21:09:26.839Z,33.43
2018-11-22T21:11:56.678Z,33.80
2018-11-22T21:14:26.541Z,38.20
2018-11-22T21:16:56.317Z,31.23
2018-11-22T21:19:26.073Z,31.70
2018-11-22T21:21:55.794Z,28.37
2018-11-22T21:24:25.669Z,32.47
2018-11-22T21:26:55.589Z,30.87
2018-11-22T21:29:25.444Z,31.50
2018-11-22T21:31:55.248Z,33.80
2018-11-22T21:34:25.040Z,27.70
2018-11-22T21:36:54.839Z,29.53
2018-11-22T21:39:24.577Z,33.23
2018-11-22T21:41:54.225Z,27.80
2018-11-22T21:44:24.115Z,26.57
2018-11-22T21:46:53.800Z,36.47
2018-11-22T21:49:23.626Z,26.70
2018-11-22T21:51:53.469Z,27.40
2018-11-22T21:54:23.489Z,29.37
2018-11-22T21:56:53.238Z,23.77
2018-11-22T21:59:22.963Z,21.57
2018-11-22T22:01:52.753Z,18.93
2018-11-22T22:04:22.733Z,30.87
2018-11-22T22:06:52.472Z,21.47
2018-11-22T22:09:22.321Z,21.37
2018-11-22T22:11:52.101Z,20.20
2018-11-22T22:14:22.272Z,25.33
2018-11-22T22:16:51.914Z,27.23
2018-11-22T22:19:21.834Z,28.47
2018-11-22T22:21:51.718Z,25.60
2018-11-22T22:24:21.839Z,28.40
2018-11-22T22:26:51.719Z,26.87
2018-11-22T22:29:21.989Z,24.40
2018-11-22T22:31:51.699Z,32.10
2018-11-22T22:34:21.606Z,23.77
2018-11-22T22:36:51.310Z,23.03
2018-11-22T22:39:21.134Z,27.00
2018-11-22T22:41:50.993Z,27.43
2018-11-22T22:44:20.970Z,26.00
2018-11-22T22:46:51.326Z,26.13
2018-11-22T22:49:21.121Z,30.37
2018-11-22T22:51:51.325Z,41.40
2018-11-22T22:54:21.140Z,23.40
2018-11-22T22:56:50.860Z,24.87
2018-11-22T22:59:21.952Z,23.73
2018-11-22T23:01:51.687Z,21.73
2018-11-22T23:04:21.611Z,27.03
2018-11-22T23:06:52.446Z,25.57
2018-11-22T23:09:22.296Z,23.80
2018-11-22T23:11:56.127Z,23.47
2018-11-22T23:14:26.128Z,22.47
2018-11-22T23:16:55.992Z,24.37
2018-11-22T23:19:25.856Z,26.53
2018-11-22T23:21:55.633Z,22.27
2018-11-22T23:24:25.469Z,24.97
2018-11-22T23:26:55.249Z,26.73
2018-11-22T23:29:25.098Z,24.27
2018-11-22T23:31:54.863Z,23.00
2018-11-22T23:34:24.711Z,21.33
2018-11-22T23:36:54.426Z,22.57
2018-11-22T23:39:24.270Z,18.93
2018-11-22T23:41:54.181Z,22.93
2018-11-22T23:44:23.966Z,20.70
2018-11-22T23:46:53.774Z,23.83
2018-11-22T23:49:23.569Z,24.53
2018-11-22T23:51:53.310Z,19.90
2018-11-22T23:54:22.954Z,23.00
2018-11-22T23:56:55.358Z,22.63
2018-11-22T23:59:25.141Z,20.80
